createdAt,value
2023-01-01T00:02:09.694Z,13.47
2023-01-01T00:05:19.495Z,13.47
2023-01-01T00:08:29.246Z,13.47
2023-01-01T00:11:38.935Z,13.45
2023-01-01T00:14:48.638Z,13.33
2023-01-01T00:18:00.141Z,13.26
2023-01-01T00:21:14.474Z,13.32
2023-01-01T00:24:24.195Z,13.32
2023-01-01T00:27:34.345Z,13.18
2023-01-01T00:30:44.211Z,13.28
2023-01-01T00:33:56.248Z,13.32
2023-01-01T00:37:05.963Z,13.28
2023-01-01T00:40:15.719Z,13.24
2023-01-01T00:43:25.447Z,13.21
2023-01-01T00:46:35.203Z,13.21
2023-01-01T00:49:46.160Z,13.29
2023-01-01T04:02:15.959Z,13.19
2023-01-01T04:05:26.999Z,13.20
2023-01-01T04:08:37.774Z,13.22
2023-01-01T04:12:00.110Z,13.22
2023-01-01T04:15:10.634Z,13.29
2023-01-01T04:18:22.022Z,13.32
2023-01-01T04:21:32.050Z,13.26
2023-01-01T04:24:41.977Z,13.33
2023-01-01T04:27:51.998Z,13.34
2023-01-01T04:31:03.016Z,13.30
2023-01-01T04:34:14.888Z,13.30
2023-01-01T04:37:25.876Z,13.30
2023-01-01T04:40:35.797Z,13.26
2023-01-01T04:43:49.833Z,13.21
2023-01-01T04:47:00.308Z,13.12
2023-01-01T04:50:12.291Z,13.12
2023-01-01T04:53:22.510Z,13.09
2023-01-01T04:56:32.604Z,13.20
2023-01-01T04:59:43.114Z,13.22
2023-01-01T05:02:53.149Z,13.20
2023-01-01T05:06:06.419Z,13.22
2023-01-01T05:09:16.519Z,13.17
2023-01-01T05:12:26.922Z,13.08
2023-01-01T05:15:38.221Z,13.08
2023-01-01T05:18:49.147Z,13.10
2023-01-01T05:22:05.332Z,13.02
2023-01-01T05:25:18.830Z,13.07
2023-01-01T05:28:28.820Z,13.04
2023-01-01T05:31:39.734Z,13.11
2023-01-01T05:34:49.773Z,13.11
2023-01-01T05:38:01.451Z,13.07
2023-01-01T05:41:15.837Z,13.11
2023-01-01T05:44:25.900Z,13.13
2023-01-01T05:47:36.202Z,13.04
2023-01-01T05:50:46.382Z,12.98
2023-01-01T05:54:00.967Z,13.00
2023-01-01T05:57:11.089Z,13.05
2023-01-01T06:57:54.712Z,12.58
2023-01-01T07:01:08.909Z,12.56
2023-01-01T07:04:19.271Z,12.51
2023-01-01T07:07:34.135Z,12.46
2023-01-01T07:10:46.162Z,12.42
2023-01-01T07:13:57.852Z,12.49
2023-01-01T07:17:08.880Z,12.46
2023-01-01T07:20:19.028Z,12.51
2023-01-01T07:23:31.098Z,12.47
2023-01-01T07:26:43.351Z,12.59
2023-01-01T07:29:57.345Z,12.61
2023-01-01T07:33:07.730Z,12.60
2023-01-01T07:36:18.064Z,12.52
2023-01-01T07:39:28.624Z,12.47
2023-01-01T07:42:38.815Z,12.52
2023-01-01T07:45:50.428Z,12.53
2023-01-01T07:49:00.922Z,12.56
2023-01-01T07:52:11.159Z,12.51
2023-01-01T07:55:22.319Z,12.45
2023-01-01T07:58:32.899Z,12.45
2023-01-01T08:01:44.478Z,12.45
2023-01-01T08:04:55.436Z,12.43
2023-01-01T08:08:06.010Z,12.46
2023-01-01T08:11:16.745Z,12.53
2023-01-01T08:14:27.073Z,12.56
2023-01-01T08:17:45.925Z,12.55
2023-01-01T08:20:57.708Z,12.58
2023-01-01T08:24:09.005Z,12.54
2023-01-01T08:27:20.038Z,12.52
2023-01-01T08:30:30.981Z,12.57
2023-01-01T08:33:43.015Z,12.62
2023-01-01T08:36:53.423Z,12.66
2023-01-01T08:40:03.488Z,12.71
2023-01-01T08:43:13.853Z,12.81
2023-01-01T08:46:24.183Z,12.93
2023-01-01T08:49:35.753Z,13.03
2023-01-01T08:52:45.795Z,12.96
2023-01-01T08:55:57.908Z,13.08
2023-01-01T08:59:07.929Z,13.20
2023-01-01T09:02:18.347Z,13.24
2023-01-01T09:05:29.763Z,13.34
2023-01-01T09:08:39.901Z,13.50
2023-01-01T09:11:52.031Z,13.33
2023-01-01T09:15:02.048Z,13.42
2023-01-01T09:18:13.149Z,13.44
2023-01-01T09:21:24.503Z,13.43
2023-01-01T09:24:34.505Z,13.42
2023-01-01T09:27:46.478Z,13.52
2023-01-01T09:30:56.484Z,13.60
2023-01-01T09:34:06.727Z,13.72
2023-01-01T09:37:18.107Z,13.67
2023-01-01T09:40:33.850Z,13.96
2023-01-01T09:43:50.768Z,13.96
2023-01-01T09:47:04.086Z,14.04
2023-01-01T09:50:17.632Z,14.06
2023-01-01T09:53:33.568Z,14.14
2023-01-01T09:56:47.112Z,14.31
2023-01-01T09:59:57.787Z,14.23
2023-01-01T10:03:18.598Z,14.20
2023-01-01T10:06:31.402Z,14.37
2023-01-01T10:09:51.891Z,14.59
2023-01-01T10:13:09.112Z,14.87
2023-01-01T10:16:30.521Z,15.18
2023-01-01T10:19:44.380Z,15.31
2023-01-01T10:22:58.777Z,15.88
2023-01-01T10:26:14.699Z,15.99
2023-01-01T10:29:29.752Z,16.20
2023-01-01T10:32:41.217Z,16.28
2023-01-01T10:35:56.945Z,15.97
2023-01-01T14:50:33.112Z,14.43
2023-01-01T14:53:46.320Z,14.45
2023-01-01T14:56:56.370Z,14.46
2023-01-01T15:00:21.950Z,14.36
2023-01-01T15:03:31.885Z,14.33
2023-01-01T15:06:42.364Z,14.29
2023-01-01T15:09:56.582Z,14.17
2023-01-01T15:13:08.319Z,14.23
2023-01-01T15:16:20.003Z,14.14
2023-01-01T15:19:29.958Z,14.08
2023-01-01T15:22:40.164Z,14.05
2023-01-01T15:25:51.563Z,14.03
2023-01-01T15:29:02.447Z,13.96
2023-01-01T15:32:16.264Z,13.89
2023-01-01T15:35:32.043Z,13.78
2023-01-01T15:38:48.357Z,13.54
2023-01-01T15:41:59.881Z,13.33
2023-01-01T15:45:17.089Z,13.23
2023-01-01T15:48:33.953Z,13.13
2023-01-01T15:51:44.181Z,13.04
2023-01-01T15:54:54.867Z,13.00
2023-01-01T15:58:06.228Z,12.96
2023-01-01T16:01:21.996Z,12.93
2023-01-01T16:04:32.224Z,12.89
2023-01-01T16:07:42.341Z,12.87
2023-01-01T16:10:53.140Z,12.83
2023-01-01T16:14:04.487Z,12.80
2023-01-01T16:17:17.540Z,12.77
2023-01-01T16:20:27.788Z,12.77
2023-01-01T16:23:37.832Z,12.75
2023-01-01T16:26:48.732Z,12.61
2023-01-01T16:30:01.754Z,12.57
2023-01-01T16:33:16.492Z,12.52
2023-01-01T16:36:29.170Z,12.45
2023-01-01T16:39:39.172Z,12.39
2023-01-01T16:42:49.222Z,12.45
2023-01-01T16:46:02.414Z,12.42
2023-01-01T16:49:13.932Z,12.50
2023-01-01T16:52:24.071Z,12.48
2023-01-01T16:55:34.002Z,12.53
2023-01-01T16:58:49.669Z,12.53
2023-01-01T17:02:02.065Z,12.55
2023-01-01T17:05:12.604Z,12.57
2023-01-01T17:08:22.757Z,12.64
2023-01-01T17:11:33.793Z,12.61
2023-01-01T17:14:43.806Z,12.80
2023-01-01T17:17:55.103Z,12.89
2023-01-01T17:21:06.250Z,13.00
2023-01-01T17:24:17.168Z,13.06
2023-01-01T17:27:27.128Z,13.17
2023-01-01T17:30:37.141Z,13.23
2023-01-01T17:33:48.742Z,13.20
2023-01-01T17:36:58.731Z,13.23
2023-01-01T17:40:09.608Z,13.24
2023-01-01T17:43:19.662Z,13.24
2023-01-01T17:46:31.212Z,13.23
2023-01-01T17:49:43.576Z,13.26
2023-01-01T17:52:53.942Z,13.22
2023-01-01T17:56:04.127Z,13.26
2023-01-01T17:59:14.179Z,13.23
2023-01-01T18:02:24.382Z,13.08
2023-01-01T18:05:35.915Z,13.08
2023-01-01T18:08:46.254Z,13.04
2023-01-01T18:11:56.611Z,12.94
2023-01-01T18:15:07.245Z,12.78
2023-01-01T18:18:17.758Z,12.67
2023-01-01T18:21:29.847Z,12.53
2023-01-01T18:24:40.116Z,12.38
2023-01-01T18:27:57.179Z,12.26
2023-01-01T18:31:09.418Z,12.17
2023-01-01T18:34:19.739Z,12.10
2023-01-01T18:37:31.518Z,12.02
2023-01-01T18:40:50.137Z,11.90
2023-01-01T18:44:01.567Z,11.81
2023-01-01T18:47:15.593Z,11.72
2023-01-01T18:50:29.773Z,11.62
2023-01-01T18:53:41.087Z,11.48
2023-01-01T18:56:52.235Z,11.33
2023-01-01T19:00:16.784Z,11.24
2023-01-01T19:03:29.144Z,11.10
2023-01-01T19:06:39.784Z,10.98
2023-01-01T19:09:57.266Z,10.82
2023-01-01T19:13:16.809Z,10.76
2023-01-01T19:16:29.025Z,10.62
2023-01-01T19:19:41.509Z,10.57
2023-01-01T19:22:51.706Z,10.59
2023-01-01T19:26:05.077Z,10.58
2023-01-01T19:29:18.540Z,10.55
2023-01-01T19:32:28.521Z,10.47
2023-01-01T19:35:38.638Z,10.37
2023-01-01T19:38:48.744Z,10.30
2023-01-01T19:42:04.052Z,10.34
2023-01-01T19:45:14.074Z,10.36
2023-01-01T19:48:24.312Z,10.36
2023-01-01T19:51:34.587Z,10.32
2023-01-01T19:54:45.697Z,10.32
2023-01-01T19:57:57.109Z,10.25
2023-01-01T20:01:07.138Z,10.14
2023-01-01T20:04:17.213Z,10.14
2023-01-01T20:07:27.351Z,10.14
2023-01-01T20:10:37.410Z,10.07
2023-01-01T20:13:49.321Z,10.29
2023-01-01T20:16:59.398Z,10.79
2023-01-01T20:20:10.653Z,11.08
2023-01-01T20:23:20.723Z,11.36
2023-01-01T20:26:30.985Z,11.68
2023-01-01T20:29:42.673Z,11.80
2023-01-01T20:32:53.388Z,12.28
2023-01-01T20:36:14.397Z,12.74
2023-01-01T20:39:24.583Z,12.88
2023-01-01T20:42:34.725Z,13.00
